sensor_id;sensor_type;location;lat;lon;timestamp;P1;durP1;ratioP1;P2;durP2;ratioP2
47725;SDS011;33483;48.294;16.388;2022-11-22T00:00:40;56.88;;;23.58;;
47725;SDS011;33483;48.294;16.388;2022-11-22T00:03:16;65.68;;;24.92;;
47725;SDS011;33483;48.294;16.388;2022-11-22T00:05:43;74.25;;;25.75;;
47725;SDS011;33483;48.294;16.388;2022-11-22T00:08:13;58.78;;;25.98;;
47725;SDS011;33483;48.294;16.388;2022-11-22T00:10:40;61.22;;;24.00;;
47725;SDS011;33483;48.294;16.388;2022-11-22T00:13:07;61.40;;;25.98;;
47725;SDS011;33483;48.294;16.388;2022-11-22T00:15:35;65.32;;;25.42;;
47725;SDS011;33483;48.294;16.388;2022-11-22T00:18:08;53.03;;;23.55;;
47725;SDS011;33483;48.294;16.388;2022-11-22T00:20:35;69.95;;;24.00;;
47725;SDS011;33483;48.294;16.388;2022-11-22T00:23:02;55.50;;;23.33;;
47725;SDS011;33483;48.294;16.388;2022-11-22T00:25:30;56.50;;;23.30;;
47725;SDS011;33483;48.294;16.388;2022-11-22T00:27:57;61.63;;;24.20;;
47725;SDS011;33483;48.294;16.388;2022-11-22T00:30:24;55.25;;;22.38;;
47725;SDS011;33483;48.294;16.388;2022-11-22T00:32:51;56.38;;;22.38;;
47725;SDS011;33483;48.294;16.388;2022-11-22T00:35:19;44.83;;;23.25;;
47725;SDS011;33483;48.294;16.388;2022-11-22T00:37:46;58.88;;;22.92;;
47725;SDS011;33483;48.294;16.388;2022-11-22T00:40:15;61.05;;;24.27;;
47725;SDS011;33483;48.294;16.388;2022-11-22T00:42:42;43.92;;;21.55;;
47725;SDS011;33483;48.294;16.388;2022-11-22T00:45:10;47.88;;;22.83;;
47725;SDS011;33483;48.294;16.388;2022-11-22T00:47:37;46.25;;;22.40;;
47725;SDS011;33483;48.294;16.388;2022-11-22T00:50:04;47.00;;;21.40;;
47725;SDS011;33483;48.294;16.388;2022-11-22T00:52:32;47.33;;;23.00;;
47725;SDS011;33483;48.294;16.388;2022-11-22T00:54:59;46.22;;;22.23;;
47725;SDS011;33483;48.294;16.388;2022-11-22T00:57:26;46.15;;;22.42;;
47725;SDS011;33483;48.294;16.388;2022-11-22T00:59:53;49.40;;;21.77;;
47725;SDS011;33483;48.294;16.388;2022-11-22T01:02:23;40.72;;;20.42;;
47725;SDS011;33483;48.294;16.388;2022-11-22T01:04:50;33.50;;;17.27;;
47725;SDS011;33483;48.294;16.388;2022-11-22T01:07:17;33.05;;;17.25;;
47725;SDS011;33483;48.294;16.388;2022-11-22T01:09:47;32.10;;;16.05;;
47725;SDS011;33483;48.294;16.388;2022-11-22T01:12:14;46.60;;;17.23;;
47725;SDS011;33483;48.294;16.388;2022-11-22T01:14:41;34.33;;;17.23;;
47725;SDS011;33483;48.294;16.388;2022-11-22T01:17:08;36.45;;;17.33;;
47725;SDS011;33483;48.294;16.388;2022-11-22T01:19:36;37.20;;;16.70;;
47725;SDS011;33483;48.294;16.388;2022-11-22T01:22:05;38.33;;;17.35;;
47725;SDS011;33483;48.294;16.388;2022-11-22T01:24:32;38.38;;;17.58;;
47725;SDS011;33483;48.294;16.388;2022-11-22T01:26:59;34.47;;;15.95;;
47725;SDS011;33483;48.294;16.388;2022-11-22T01:29:29;32.78;;;16.23;;
47725;SDS011;33483;48.294;16.388;2022-11-22T01:31:57;39.25;;;16.25;;
47725;SDS011;33483;48.294;16.388;2022-11-22T01:34:26;36.78;;;17.15;;
47725;SDS011;33483;48.294;16.388;2022-11-22T01:36:55;41.90;;;17.75;;
47725;SDS011;33483;48.294;16.388;2022-11-22T01:39:23;37.20;;;17.27;;
47725;SDS011;33483;48.294;16.388;2022-11-22T01:41:50;43.35;;;16.95;;
47725;SDS011;33483;48.294;16.388;2022-11-22T01:44:25;41.22;;;17.27;;
47725;SDS011;33483;48.294;16.388;2022-11-22T01:46:55;43.33;;;18.27;;
47725;SDS011;33483;48.294;16.388;2022-11-22T01:52:30;44.90;;;17.80;;
47725;SDS011;33483;48.294;16.388;2022-11-22T01:55:05;41.38;;;16.35;;
47725;SDS011;33483;48.294;16.388;2022-11-22T01:57:35;38.37;;;15.60;;
47725;SDS011;33483;48.294;16.388;2022-11-22T02:00:11;37.45;;;17.15;;
47725;SDS011;33483;48.294;16.388;2022-11-22T02:02:47;41.25;;;16.17;;
47725;SDS011;33483;48.294;16.388;2022-11-22T02:05:18;36.40;;;15.95;;
47725;SDS011;33483;48.294;16.388;2022-11-22T02:07:49;38.05;;;16.83;;
47725;SDS011;33483;48.294;16.388;2022-11-22T02:10:27;38.80;;;17.45;;
47725;SDS011;33483;48.294;16.388;2022-11-22T02:12:56;38.72;;;17.33;;
47725;SDS011;33483;48.294;16.388;2022-11-22T02:15:25;38.58;;;16.67;;
47725;SDS011;33483;48.294;16.388;2022-11-22T02:17:52;38.10;;;16.17;;
47725;SDS011;33483;48.294;16.388;2022-11-22T02:20:20;42.35;;;17.23;;
47725;SDS011;33483;48.294;16.388;2022-11-22T02:28:08;38.88;;;17.23;;
47725;SDS011;33483;48.294;16.388;2022-11-22T02:30:38;52.42;;;18.73;;
47725;SDS011;33483;48.294;16.388;2022-11-22T02:33:05;41.97;;;17.05;;
47725;SDS011;33483;48.294;16.388;2022-11-22T02:35:34;45.00;;;17.45;;
47725;SDS011;33483;48.294;16.388;2022-11-22T02:38:04;42.03;;;18.08;;
47725;SDS011;33483;48.294;16.388;2022-11-22T02:40:39;41.15;;;18.10;;
47725;SDS011;33483;48.294;16.388;2022-11-22T02:45:39;38.47;;;15.63;;
47725;SDS011;33483;48.294;16.388;2022-11-22T02:48:07;39.47;;;16.88;;
47725;SDS011;33483;48.294;16.388;2022-11-22T02:50:37;41.13;;;16.95;;
47725;SDS011;33483;48.294;16.388;2022-11-22T02:53:04;33.53;;;15.68;;
47725;SDS011;33483;48.294;16.388;2022-11-22T02:55:32;43.35;;;15.95;;
47725;SDS011;33483;48.294;16.388;2022-11-22T02:57:59;34.92;;;15.75;;
47725;SDS011;33483;48.294;16.388;2022-11-22T03:00:27;41.03;;;17.17;;
47725;SDS011;33483;48.294;16.388;2022-11-22T03:02:54;44.28;;;18.17;;
47725;SDS011;33483;48.294;16.388;2022-11-22T03:05:23;41.88;;;17.00;;
47725;SDS011;33483;48.294;16.388;2022-11-22T03:07:50;42.50;;;18.13;;
47725;SDS011;33483;48.294;16.388;2022-11-22T03:10:20;42.30;;;16.38;;
47725;SDS011;33483;48.294;16.388;2022-11-22T03:12:47;46.80;;;17.27;;
47725;SDS011;33483;48.294;16.388;2022-11-22T03:15:15;51.50;;;19.02;;
47725;SDS011;33483;48.294;16.388;2022-11-22T03:17:41;41.70;;;16.25;;
47725;SDS011;33483;48.294;16.388;2022-11-22T03:20:09;48.90;;;18.92;;
47725;SDS011;33483;48.294;16.388;2022-11-22T03:22:36;50.63;;;19.08;;
47725;SDS011;33483;48.294;16.388;2022-11-22T03:25:04;57.17;;;20.02;;
47725;SDS011;33483;48.294;16.388;2022-11-22T03:27:33;51.28;;;19.00;;
47725;SDS011;33483;48.294;16.388;2022-11-22T03:30:00;53.83;;;19.17;;
47725;SDS011;33483;48.294;16.388;2022-11-22T03:32:27;61.05;;;20.38;;
47725;SDS011;33483;48.294;16.388;2022-11-22T03:34:55;60.25;;;20.73;;
47725;SDS011;33483;48.294;16.388;2022-11-22T03:37:22;55.80;;;20.00;;
47725;SDS011;33483;48.294;16.388;2022-11-22T03:39:49;55.92;;;20.77;;
47725;SDS011;33483;48.294;16.388;2022-11-22T03:42:16;59.83;;;22.80;;
47725;SDS011;33483;48.294;16.388;2022-11-22T03:44:48;59.88;;;21.25;;
47725;SDS011;33483;48.294;16.388;2022-11-22T03:47:15;51.42;;;20.92;;
47725;SDS011;33483;48.294;16.388;2022-11-22T03:49:42;58.88;;;20.73;;
47725;SDS011;33483;48.294;16.388;2022-11-22T03:52:09;62.53;;;22.85;;
47725;SDS011;33483;48.294;16.388;2022-11-22T03:54:39;50.90;;;20.20;;
47725;SDS011;33483;48.294;16.388;2022-11-22T03:57:09;52.42;;;21.20;;
47725;SDS011;33483;48.294;16.388;2022-11-22T03:59:36;58.92;;;21.00;;
47725;SDS011;33483;48.294;16.388;2022-11-22T04:02:03;54.75;;;19.98;;
47725;SDS011;33483;48.294;16.388;2022-11-22T04:04:32;48.22;;;19.90;;
47725;SDS011;33483;48.294;16.388;2022-11-22T04:06:59;55.10;;;20.60;;
47725;SDS011;33483;48.294;16.388;2022-11-22T04:09:29;53.88;;;21.17;;
47725;SDS011;33483;48.294;16.388;2022-11-22T04:11:56;52.40;;;20.42;;
47725;SDS011;33483;48.294;16.388;2022-11-22T04:14:24;53.92;;;20.10;;
47725;SDS011;33483;48.294;16.388;2022-11-22T04:17:13;53.00;;;19.23;;
47725;SDS011;33483;48.294;16.388;2022-11-22T04:19:40;54.72;;;20.55;;
47725;SDS011;33483;48.294;16.388;2022-11-22T04:22:27;49.25;;;19.83;;
47725;SDS011;33483;48.294;16.388;2022-11-22T04:24:54;47.45;;;20.48;;
47725;SDS011;33483;48.294;16.388;2022-11-22T04:27:40;45.55;;;17.73;;
47725;SDS011;33483;48.294;16.388;2022-11-22T04:30:07;38.33;;;17.67;;
47725;SDS011;33483;48.294;16.388;2022-11-22T04:32:34;44.80;;;19.15;;
47725;SDS011;33483;48.294;16.388;2022-11-22T04:35:14;43.50;;;18.63;;
47725;SDS011;33483;48.294;16.388;2022-11-22T04:37:42;44.67;;;18.70;;
47725;SDS011;33483;48.294;16.388;2022-11-22T04:40:17;42.97;;;17.70;;
47725;SDS011;33483;48.294;16.388;2022-11-22T04:42:46;41.55;;;18.20;;
47725;SDS011;33483;48.294;16.388;2022-11-22T04:45:34;40.65;;;17.48;;
47725;SDS011;33483;48.294;16.388;2022-11-22T04:48:01;45.10;;;18.98;;
47725;SDS011;33483;48.294;16.388;2022-11-22T04:50:29;37.58;;;16.95;;
47725;SDS011;33483;48.294;16.388;2022-11-22T04:53:16;38.22;;;17.08;;
47725;SDS011;33483;48.294;16.388;2022-11-22T04:55:45;36.88;;;17.95;;
47725;SDS011;33483;48.294;16.388;2022-11-22T04:58:12;33.50;;;16.48;;
47725;SDS011;33483;48.294;16.388;2022-11-22T05:00:40;35.08;;;16.15;;
47725;SDS011;33483;48.294;16.388;2022-11-22T05:03:10;35.58;;;16.48;;
47725;SDS011;33483;48.294;16.388;2022-11-22T05:05:38;36.47;;;16.90;;
47725;SDS011;33483;48.294;16.388;2022-11-22T05:08:06;36.38;;;17.05;;
47725;SDS011;33483;48.294;16.388;2022-11-22T05:10:34;35.60;;;16.40;;
47725;SDS011;33483;48.294;16.388;2022-11-22T05:13:24;34.63;;;16.35;;
47725;SDS011;33483;48.294;16.388;2022-11-22T05:15:53;31.63;;;16.23;;
47725;SDS011;33483;48.294;16.388;2022-11-22T05:18:21;33.63;;;16.50;;
47725;SDS011;33483;48.294;16.388;2022-11-22T05:20:49;33.90;;;17.67;;
47725;SDS011;33483;48.294;16.388;2022-11-22T05:23:17;37.97;;;17.35;;
47725;SDS011;33483;48.294;16.388;2022-11-22T05:26:04;35.33;;;16.98;;
47725;SDS011;33483;48.294;16.388;2022-11-22T05:28:32;32.75;;;16.75;;
47725;SDS011;33483;48.294;16.388;2022-11-22T05:33:39;34.65;;;16.83;;
47725;SDS011;33483;48.294;16.388;2022-11-22T05:36:08;34.60;;;17.58;;
47725;SDS011;33483;48.294;16.388;2022-11-22T05:38:38;29.42;;;15.65;;
47725;SDS011;33483;48.294;16.388;2022-11-22T05:41:07;32.47;;;15.63;;
47725;SDS011;33483;48.294;16.388;2022-11-22T05:43:35;37.13;;;17.35;;
47725;SDS011;33483;48.294;16.388;2022-11-22T05:46:07;31.10;;;16.33;;
47725;SDS011;33483;48.294;16.388;2022-11-22T05:48:35;34.55;;;16.70;;
47725;SDS011;33483;48.294;16.388;2022-11-22T05:51:07;38.30;;;15.88;;
47725;SDS011;33483;48.294;16.388;2022-11-22T05:53:36;35.40;;;16.45;;
47725;SDS011;33483;48.294;16.388;2022-11-22T05:56:05;34.00;;;15.60;;
47725;SDS011;33483;48.294;16.388;2022-11-22T05:58:36;29.20;;;15.43;;
47725;SDS011;33483;48.294;16.388;2022-11-22T06:01:06;33.05;;;16.30;;
47725;SDS011;33483;48.294;16.388;2022-11-22T06:03:34;29.35;;;16.10;;
47725;SDS011;33483;48.294;16.388;2022-11-22T06:06:03;34.72;;;16.73;;
47725;SDS011;33483;48.294;16.388;2022-11-22T06:08:31;28.42;;;16.35;;
47725;SDS011;33483;48.294;16.388;2022-11-22T06:11:35;34.55;;;16.10;;
47725;SDS011;33483;48.294;16.388;2022-11-22T06:13:58;33.55;;;17.05;;
47725;SDS011;33483;48.294;16.388;2022-11-22T06:16:29;31.60;;;16.42;;
47725;SDS011;33483;48.294;16.388;2022-11-22T06:18:56;30.83;;;16.25;;
47725;SDS011;33483;48.294;16.388;2022-11-22T06:21:24;29.85;;;17.15;;
47725;SDS011;33483;48.294;16.388;2022-11-22T06:23:52;33.17;;;16.92;;
47725;SDS011;33483;48.294;16.388;2022-11-22T06:26:21;30.40;;;15.65;;
47725;SDS011;33483;48.294;16.388;2022-11-22T06:28:49;30.33;;;16.70;;
47725;SDS011;33483;48.294;16.388;2022-11-22T06:31:21;34.30;;;16.67;;
47725;SDS011;33483;48.294;16.388;2022-11-22T06:33:54;35.63;;;16.98;;
47725;SDS011;33483;48.294;16.388;2022-11-22T06:36:24;31.88;;;16.75;;
47725;SDS011;33483;48.294;16.388;2022-11-22T06:39:00;33.85;;;17.63;;
47725;SDS011;33483;48.294;16.388;2022-11-22T06:41:33;35.70;;;16.55;;
47725;SDS011;33483;48.294;16.388;2022-11-22T06:44:07;34.42;;;17.05;;
47725;SDS011;33483;48.294;16.388;2022-11-22T06:46:35;33.20;;;16.40;;
47725;SDS011;33483;48.294;16.388;2022-11-22T06:49:03;34.05;;;16.90;;
47725;SDS011;33483;48.294;16.388;2022-11-22T06:51:30;32.40;;;15.70;;
47725;SDS011;33483;48.294;16.388;2022-11-22T06:53:58;32.03;;;16.15;;
47725;SDS011;33483;48.294;16.388;2022-11-22T06:56:26;34.97;;;17.42;;
47725;SDS011;33483;48.294;16.388;2022-11-22T06:58:55;32.17;;;16.65;;
47725;SDS011;33483;48.294;16.388;2022-11-22T07:01:24;29.55;;;15.70;;
47725;SDS011;33483;48.294;16.388;2022-11-22T07:03:53;34.15;;;16.38;;
47725;SDS011;33483;48.294;16.388;2022-11-22T07:06:26;30.77;;;15.82;;
47725;SDS011;33483;48.294;16.388;2022-11-22T07:08:55;28.73;;;15.30;;
47725;SDS011;33483;48.294;16.388;2022-11-22T07:11:25;27.40;;;14.45;;
47725;SDS011;33483;48.294;16.388;2022-11-22T07:13:55;32.78;;;16.42;;
47725;SDS011;33483;48.294;16.388;2022-11-22T07:16:33;29.45;;;15.13;;
47725;SDS011;33483;48.294;16.388;2022-11-22T07:19:01;33.03;;;16.08;;
47725;SDS011;33483;48.294;16.388;2022-11-22T07:21:28;34.35;;;17.80;;
47725;SDS011;33483;48.294;16.388;2022-11-22T07:23:58;30.65;;;16.10;;
47725;SDS011;33483;48.294;16.388;2022-11-22T07:26:25;29.70;;;15.10;;
47725;SDS011;33483;48.294;16.388;2022-11-22T07:28:53;35.95;;;15.93;;
47725;SDS011;33483;48.294;16.388;2022-11-22T07:31:20;27.25;;;15.80;;
47725;SDS011;33483;48.294;16.388;2022-11-22T07:33:48;28.75;;;15.88;;
47725;SDS011;33483;48.294;16.388;2022-11-22T07:36:16;31.80;;;16.08;;
47725;SDS011;33483;48.294;16.388;2022-11-22T07:38:45;32.10;;;17.15;;
47725;SDS011;33483;48.294;16.388;2022-11-22T07:41:14;33.40;;;17.25;;
47725;SDS011;33483;48.294;16.388;2022-11-22T07:43:42;31.73;;;17.23;;
47725;SDS011;33483;48.294;16.388;2022-11-22T07:46:20;33.17;;;18.35;;
47725;SDS011;33483;48.294;16.388;2022-11-22T07:48:49;34.95;;;17.70;;
47725;SDS011;33483;48.294;16.388;2022-11-22T07:51:17;38.58;;;18.70;;
47725;SDS011;33483;48.294;16.388;2022-11-22T07:53:44;35.55;;;18.33;;
47725;SDS011;33483;48.294;16.388;2022-11-22T07:56:12;33.78;;;17.70;;
47725;SDS011;33483;48.294;16.388;2022-11-22T07:58:39;30.83;;;17.02;;
47725;SDS011;33483;48.294;16.388;2022-11-22T08:01:07;33.10;;;17.60;;
47725;SDS011;33483;48.294;16.388;2022-11-22T08:03:36;33.42;;;18.20;;
47725;SDS011;33483;48.294;16.388;2022-11-22T08:06:05;36.40;;;18.65;;
47725;SDS011;33483;48.294;16.388;2022-11-22T08:08:34;34.55;;;18.63;;
47725;SDS011;33483;48.294;16.388;2022-11-22T08:11:03;37.67;;;18.90;;
47725;SDS011;33483;48.294;16.388;2022-11-22T08:13:31;35.92;;;18.65;;
47725;SDS011;33483;48.294;16.388;2022-11-22T08:16:01;42.38;;;19.80;;
47725;SDS011;33483;48.294;16.388;2022-11-22T08:18:31;41.22;;;19.92;;
47725;SDS011;33483;48.294;16.388;2022-11-22T08:21:04;39.10;;;19.35;;
47725;SDS011;33483;48.294;16.388;2022-11-22T08:23:34;39.05;;;20.05;;
47725;SDS011;33483;48.294;16.388;2022-11-22T08:26:01;36.20;;;18.55;;
47725;SDS011;33483;48.294;16.388;2022-11-22T08:28:29;40.80;;;20.05;;
47725;SDS011;33483;48.294;16.388;2022-11-22T08:31:00;42.45;;;20.38;;
47725;SDS011;33483;48.294;16.388;2022-11-22T08:33:32;43.03;;;20.35;;
47725;SDS011;33483;48.294;16.388;2022-11-22T08:36:00;40.53;;;19.50;;
47725;SDS011;33483;48.294;16.388;2022-11-22T08:38:27;37.20;;;19.92;;
47725;SDS011;33483;48.294;16.388;2022-11-22T08:40:54;39.88;;;20.42;;
47725;SDS011;33483;48.294;16.388;2022-11-22T08:43:24;39.75;;;20.90;;
47725;SDS011;33483;48.294;16.388;2022-11-22T08:45:52;40.83;;;20.45;;
47725;SDS011;33483;48.294;16.388;2022-11-22T08:48:23;36.58;;;20.45;;
47725;SDS011;33483;48.294;16.388;2022-11-22T08:50:52;42.05;;;22.08;;
47725;SDS011;33483;48.294;16.388;2022-11-22T08:53:22;41.28;;;20.05;;
47725;SDS011;33483;48.294;16.388;2022-11-22T08:55:51;37.85;;;21.88;;
47725;SDS011;33483;48.294;16.388;2022-11-22T08:58:21;44.20;;;22.30;;
47725;SDS011;33483;48.294;16.388;2022-11-22T09:00:48;43.85;;;22.45;;
47725;SDS011;33483;48.294;16.388;2022-11-22T09:03:18;36.40;;;20.70;;
47725;SDS011;33483;48.294;16.388;2022-11-22T09:05:45;39.92;;;21.52;;
47725;SDS011;33483;48.294;16.388;2022-11-22T09:08:33;38.35;;;20.83;;
47725;SDS011;33483;48.294;16.388;2022-11-22T09:11:05;34.83;;;21.10;;
47725;SDS011;33483;48.294;16.388;2022-11-22T09:13:34;39.45;;;21.23;;
47725;SDS011;33483;48.294;16.388;2022-11-22T09:16:06;37.75;;;21.40;;
47725;SDS011;33483;48.294;16.388;2022-11-22T09:18:35;38.40;;;19.88;;
47725;SDS011;33483;48.294;16.388;2022-11-22T09:21:04;39.03;;;20.75;;
47725;SDS011;33483;48.294;16.388;2022-11-22T09:23:33;36.20;;;20.95;;
47725;SDS011;33483;48.294;16.388;2022-11-22T09:26:06;41.90;;;22.92;;
47725;SDS011;33483;48.294;16.388;2022-11-22T09:28:37;43.20;;;24.10;;
47725;SDS011;33483;48.294;16.388;2022-11-22T09:31:06;47.35;;;24.67;;
47725;SDS011;33483;48.294;16.388;2022-11-22T09:33:34;43.13;;;24.60;;
47725;SDS011;33483;48.294;16.388;2022-11-22T09:36:07;46.38;;;24.27;;
47725;SDS011;33483;48.294;16.388;2022-11-22T09:38:37;44.10;;;24.45;;
47725;SDS011;33483;48.294;16.388;2022-11-22T09:52:08;41.22;;;22.98;;
47725;SDS011;33483;48.294;16.388;2022-11-22T09:54:47;38.88;;;22.90;;
47725;SDS011;33483;48.294;16.388;2022-11-22T09:57:37;41.10;;;23.73;;
47725;SDS011;33483;48.294;16.388;2022-11-22T10:00:30;38.22;;;22.65;;
47725;SDS011;33483;48.294;16.388;2022-11-22T10:06:14;36.63;;;20.58;;
47725;SDS011;33483;48.294;16.388;2022-11-22T10:11:47;37.58;;;20.10;;
47725;SDS011;33483;48.294;16.388;2022-11-22T10:14:43;35.78;;;19.40;;
47725;SDS011;33483;48.294;16.388;2022-11-22T10:17:33;37.63;;;20.77;;
47725;SDS011;33483;48.294;16.388;2022-11-22T10:20:11;38.83;;;21.95;;
47725;SDS011;33483;48.294;16.388;2022-11-22T10:22:49;36.47;;;20.55;;
47725;SDS011;33483;48.294;16.388;2022-11-22T10:25:21;34.20;;;20.77;;
47725;SDS011;33483;48.294;16.388;2022-11-22T10:28:04;37.83;;;21.25;;
47725;SDS011;33483;48.294;16.388;2022-11-22T10:30:45;33.40;;;18.80;;
47725;SDS011;33483;48.294;16.388;2022-11-22T10:57:58;33.90;;;18.73;;
47725;SDS011;33483;48.294;16.388;2022-11-22T11:00:37;32.33;;;19.42;;
47725;SDS011;33483;48.294;16.388;2022-11-22T11:09:02;31.40;;;18.90;;
47725;SDS011;33483;48.294;16.388;2022-11-22T11:11:55;34.10;;;19.38;;
47725;SDS011;33483;48.294;16.388;2022-11-22T11:14:30;32.25;;;19.65;;
47725;SDS011;33483;48.294;16.388;2022-11-22T11:17:05;33.28;;;18.90;;
47725;SDS011;33483;48.294;16.388;2022-11-22T11:19:36;34.35;;;19.10;;
47725;SDS011;33483;48.294;16.388;2022-11-22T11:24:35;30.27;;;17.35;;
47725;SDS011;33483;48.294;16.388;2022-11-22T11:27:05;27.17;;;16.80;;
47725;SDS011;33483;48.294;16.388;2022-11-22T11:32:13;32.75;;;18.30;;
47725;SDS011;33483;48.294;16.388;2022-11-22T11:37:23;29.92;;;17.38;;
47725;SDS011;33483;48.294;16.388;2022-11-22T11:39:56;36.95;;;16.75;;
47725;SDS011;33483;48.294;16.388;2022-11-22T11:42:33;28.27;;;15.70;;
47725;SDS011;33483;48.294;16.388;2022-11-22T11:47:50;27.08;;;15.88;;
47725;SDS011;33483;48.294;16.388;2022-11-22T11:50:21;27.52;;;15.75;;
47725;SDS011;33483;48.294;16.388;2022-11-22T11:53:01;25.70;;;15.50;;
47725;SDS011;33483;48.294;16.388;2022-11-22T11:55:32;26.80;;;14.30;;
47725;SDS011;33483;48.294;16.388;2022-11-22T11:58:09;26.08;;;14.52;;
47725;SDS011;33483;48.294;16.388;2022-11-22T12:00:45;26.35;;;14.50;;
47725;SDS011;33483;48.294;16.388;2022-11-22T12:03:14;31.17;;;15.98;;
47725;SDS011;33483;48.294;16.388;2022-11-22T12:05:45;25.25;;;13.73;;
47725;SDS011;33483;48.294;16.388;2022-11-22T12:08:28;25.83;;;14.13;;
47725;SDS011;33483;48.294;16.388;2022-11-22T12:11:01;22.50;;;13.85;;
47725;SDS011;33483;48.294;16.388;2022-11-22T12:16:28;23.58;;;13.18;;
47725;SDS011;33483;48.294;16.388;2022-11-22T12:22:12;21.52;;;12.95;;
47725;SDS011;33483;48.294;16.388;2022-11-22T12:25:47;22.77;;;14.77;;
47725;SDS011;33483;48.294;16.388;2022-11-22T12:28:22;24.67;;;16.95;;
47725;SDS011;33483;48.294;16.388;2022-11-22T12:33:42;26.65;;;16.80;;
47725;SDS011;33483;48.294;16.388;2022-11-22T12:36:31;23.20;;;16.15;;
47725;SDS011;33483;48.294;16.388;2022-11-22T12:39:07;25.23;;;15.77;;
47725;SDS011;33483;48.294;16.388;2022-11-22T12:41:40;27.15;;;16.77;;
47725;SDS011;33483;48.294;16.388;2022-11-22T12:44:10;25.88;;;16.00;;
47725;SDS011;33483;48.294;16.388;2022-11-22T12:55:03;31.52;;;18.40;;
47725;SDS011;33483;48.294;16.388;2022-11-22T12:57:33;29.95;;;18.45;;
47725;SDS011;33483;48.294;16.388;2022-11-22T13:02:58;34.05;;;19.50;;
47725;SDS011;33483;48.294;16.388;2022-11-22T13:05:29;26.38;;;18.38;;
47725;SDS011;33483;48.294;16.388;2022-11-22T13:08:52;29.88;;;19.48;;
47725;SDS011;33483;48.294;16.388;2022-11-22T13:10:58;27.90;;;18.33;;
47725;SDS011;33483;48.294;16.388;2022-11-22T13:13:42;33.15;;;18.77;;
47725;SDS011;33483;48.294;16.388;2022-11-22T13:16:13;27.50;;;18.25;;
47725;SDS011;33483;48.294;16.388;2022-11-22T13:18:44;30.45;;;18.15;;
47725;SDS011;33483;48.294;16.388;2022-11-22T13:23:54;25.13;;;17.02;;
47725;SDS011;33483;48.294;16.388;2022-11-22T13:29:30;27.88;;;17.23;;
47725;SDS011;33483;48.294;16.388;2022-11-22T13:34:31;26.00;;;16.98;;
47725;SDS011;33483;48.294;16.388;2022-11-22T13:37:10;27.15;;;17.67;;
47725;SDS011;33483;48.294;16.388;2022-11-22T13:39:47;29.80;;;17.67;;
47725;SDS011;33483;48.294;16.388;2022-11-22T13:42:22;27.92;;;17.92;;
47725;SDS011;33483;48.294;16.388;2022-11-22T13:49:48;29.38;;;16.42;;
47725;SDS011;33483;48.294;16.388;2022-11-22T13:57:33;26.30;;;16.90;;
47725;SDS011;33483;48.294;16.388;2022-11-22T14:08:25;29.33;;;17.80;;
47725;SDS011;33483;48.294;16.388;2022-11-22T14:14:34;24.13;;;16.37;;
47725;SDS011;33483;48.294;16.388;2022-11-22T14:20:30;29.08;;;17.20;;
47725;SDS011;33483;48.294;16.388;2022-11-22T14:26:03;31.40;;;19.00;;
47725;SDS011;33483;48.294;16.388;2022-11-22T14:29:02;29.45;;;18.88;;
47725;SDS011;33483;48.294;16.388;2022-11-22T14:31:59;32.17;;;17.65;;
47725;SDS011;33483;48.294;16.388;2022-11-22T14:38:00;27.83;;;17.08;;
47725;SDS011;33483;48.294;16.388;2022-11-22T14:50:27;22.88;;;15.95;;
47725;SDS011;33483;48.294;16.388;2022-11-22T15:02:44;23.05;;;16.10;;
47725;SDS011;33483;48.294;16.388;2022-11-22T15:16:52;24.00;;;16.08;;
47725;SDS011;33483;48.294;16.388;2022-11-22T15:19:43;24.20;;;16.00;;
47725;SDS011;33483;48.294;16.388;2022-11-22T15:22:31;23.98;;;15.85;;
47725;SDS011;33483;48.294;16.388;2022-11-22T15:25:18;24.85;;;15.77;;
47725;SDS011;33483;48.294;16.388;2022-11-22T15:28:10;23.70;;;15.40;;
47725;SDS011;33483;48.294;16.388;2022-11-22T15:30:59;22.08;;;14.82;;
47725;SDS011;33483;48.294;16.388;2022-11-22T15:33:54;20.38;;;13.55;;
47725;SDS011;33483;48.294;16.388;2022-11-22T15:39:37;21.63;;;13.50;;
47725;SDS011;33483;48.294;16.388;2022-11-22T15:42:24;23.20;;;13.95;;
47725;SDS011;33483;48.294;16.388;2022-11-22T15:45:12;26.10;;;17.15;;
47725;SDS011;33483;48.294;16.388;2022-11-22T15:48:01;20.45;;;13.57;;
47725;SDS011;33483;48.294;16.388;2022-11-22T15:56:55;25.30;;;15.15;;
47725;SDS011;33483;48.294;16.388;2022-11-22T15:59:38;22.05;;;13.95;;
47725;SDS011;33483;48.294;16.388;2022-11-22T16:02:18;23.27;;;14.25;;
47725;SDS011;33483;48.294;16.388;2022-11-22T16:04:51;27.13;;;14.43;;
47725;SDS011;33483;48.294;16.388;2022-11-22T16:07:46;29.08;;;16.23;;
47725;SDS011;33483;48.294;16.388;2022-11-22T16:10:19;27.98;;;17.13;;
47725;SDS011;33483;48.294;16.388;2022-11-22T16:12:49;29.58;;;16.42;;
47725;SDS011;33483;48.294;16.388;2022-11-22T16:15:30;24.83;;;15.77;;
47725;SDS011;33483;48.294;16.388;2022-11-22T16:20:58;29.63;;;16.73;;
47725;SDS011;33483;48.294;16.388;2022-11-22T16:23:31;28.45;;;16.50;;
47725;SDS011;33483;48.294;16.388;2022-11-22T16:28:43;27.75;;;16.25;;
47725;SDS011;33483;48.294;16.388;2022-11-22T16:31:16;28.58;;;17.50;;
47725;SDS011;33483;48.294;16.388;2022-11-22T16:33:51;29.80;;;17.77;;
47725;SDS011;33483;48.294;16.388;2022-11-22T16:36:21;26.80;;;16.58;;
47725;SDS011;33483;48.294;16.388;2022-11-22T16:38:50;28.15;;;16.77;;
47725;SDS011;33483;48.294;16.388;2022-11-22T16:41:18;30.20;;;17.05;;
47725;SDS011;33483;48.294;16.388;2022-11-22T16:43:56;25.73;;;16.10;;
47725;SDS011;33483;48.294;16.388;2022-11-22T16:46:27;34.95;;;20.65;;
47725;SDS011;33483;48.294;16.388;2022-11-22T16:48:57;31.58;;;18.13;;
47725;SDS011;33483;48.294;16.388;2022-11-22T16:51:28;35.58;;;17.48;;
47725;SDS011;33483;48.294;16.388;2022-11-22T16:53:57;30.83;;;18.35;;
47725;SDS011;33483;48.294;16.388;2022-11-22T16:56:34;31.27;;;18.10;;
47725;SDS011;33483;48.294;16.388;2022-11-22T16:59:04;30.70;;;17.98;;
47725;SDS011;33483;48.294;16.388;2022-11-22T17:01:39;32.75;;;18.17;;
47725;SDS011;33483;48.294;16.388;2022-11-22T17:04:22;31.73;;;18.80;;
47725;SDS011;33483;48.294;16.388;2022-11-22T17:06:56;29.88;;;17.17;;
47725;SDS011;33483;48.294;16.388;2022-11-22T17:09:24;30.13;;;17.98;;
47725;SDS011;33483;48.294;16.388;2022-11-22T17:11:51;32.85;;;18.80;;
47725;SDS011;33483;48.294;16.388;2022-11-22T17:14:19;62.40;;;34.08;;
47725;SDS011;33483;48.294;16.388;2022-11-22T17:16:48;55.95;;;30.75;;
47725;SDS011;33483;48.294;16.388;2022-11-22T17:19:16;43.42;;;26.85;;
47725;SDS011;33483;48.294;16.388;2022-11-22T17:22:05;38.88;;;23.33;;
47725;SDS011;33483;48.294;16.388;2022-11-22T17:24:34;43.28;;;24.77;;
47725;SDS011;33483;48.294;16.388;2022-11-22T17:27:02;40.25;;;22.63;;
47725;SDS011;33483;48.294;16.388;2022-11-22T17:29:30;41.90;;;23.52;;
47725;SDS011;33483;48.294;16.388;2022-11-22T17:32:19;40.50;;;24.63;;
47725;SDS011;33483;48.294;16.388;2022-11-22T17:34:48;40.05;;;22.92;;